Pine Island, Minnesota
Current Conditions -  °F | °C
As of 7:54 AM on Friday 31 Oct 2014 (Local Time) from K9MN Reporting Station
Clear Clear  
Wind Chill: 17°   Ceiling: Unl
Heat Index: 26°   Visibility: 10mi
Dew Point: 16°   Wind: 9mph
Humidity: 64%   Direction: 310°NW
Pressure: 30.43"   Gusts: 16mph
Location:  44.2°N, 92.65°W
Report Text: K9MN 311254Z AUTO 31008G14KT 280V340 10SM CLR M03/M09 A3043 RMK AO1 T10311090
Loading
Personal Weather Stations






























Interactive Weather Map
Tropical Storm Tracking
New forecast layout! Learn more

10-Day Weather Forecast

Advertisements
Track Severe Weather on mobile